Youngstown, OH

7:41 AM EST on December 11, 2016 (GMT -0500)
West Side | | Change Station

Elev 1010 ft 41.09 °N, 80.70 °W | Updated 2 seconds ago

Snow
Snow
23.5 °F
Feels Like 19 °F
N
3.4
Wind Variable Wind from South
Gusts 4.9 mph

Today
High -- | Low -- °F
--% Chance of Precip.
Yesterday
High -- | Low -- °F
Precip. -- in
Pressure 30.42 in
Visibility 2.5 miles
Clouds Overcast 2100 ft
Windchill 19 °F
Dew Point 13 °F
Humidity 64%
Rainfall 0.00 in
Snow Depth Not available.
7:38 AM 4:54 PM
Waxing Gibbous, 91% visible
METAR KYNG 111151Z 16004KT 2 1/2SM -SN OVC021 M06/M07 A3036 RMK AO2 SLP300 4/001 60006 70006 P0001 T10561072 11044 21056 56010
Pressure 30.42 in
Visibility 2.5 miles
Clouds Overcast 2100 ft
Windchill 19 °F
Dew Point 13 °F
Humidity 64%
Rainfall 0.00 in
Snow Depth Not available.
7:38 AM 4:54 PM
Waxing Gibbous, 91% visible
METAR KYNG 111151Z 16004KT 2 1/2SM -SN OVC021 M06/M07 A3036 RMK AO2 SLP300 4/001 60006 70006 P0001 T10561072 11044 21056 56010

10-Day Weather Forecast

Almanac

Astronomy

Dec. 11, 2016 Rise Set
Actual Time
Civil Twilight
Nautical Twilight
Astronomical Twilight
Moon
Length of Visible Light
Length of Day
Tomorrow will be .
, % of the Moon is Illuminated

Today's Extremes

State Highs State Lows

Community

WunderPhotos

Upload Photos

1,956,714 photos uploaded!

WunderBlog® & News

Nearby

Air Quality

  Air Quality AQ Index Pollutant
Not available.

Snow Depth

Station Depth Elevation

Earthquake Activity

City Distance Mag. Time & Date
Minimum magnitude displayed is 2.5.

Coastal Water Temperatures

Place Temperature

Stations

Nearby Weather Stations

Station Location Temp. Windchill Dew Point Humidity Wind Precip. Elev Updated Type
                   

Watches & Warnings

There are currently no watches in effect.